Etusivu
METAR-TAF:

METAR-TAF

Lentoasemat :

Windom Municipal Airport

Windom, Minnesota, Yhdysvallat

Leveyspiiri: 43-54-48N, Pituuspiiri: 095-06-34W, korkeus merenpinnasta: 430 m

Tämänhetkinen sää

Tämä raportti tehtiin 32 minuuttia sitten, kello 01.35 UTC
Tuuli 11 kn pohjoisesta
Lämpötila 17°C
Kosteus 94%
Ilmanpaine 1010 hPa
Näkyvyys: 11.3 km
Hajanaisia pilviä 600 ft:n korkeudessa

METAR: KMWM 270135Z AUTO 35011KT 7SM SCT006 17/16 A2982 RMK AO2 LTG DSNT SE

Aika: 21:07 (02:07 UTC)


TAF: puuttuu

Säähavainnot ja -ennusteet yli 4000 lentoasemalta (METAR- ja TAF-raportit).

Käytössä olevat sääasemat on merkitty karttaan keltaisilla ja punaisilla pisteillä.

Aseta hiiri pisteen päälle nähdäksesi sääaseman nimen.

Klikkaa sitten nähdäksesi säähavainnot ja -ennusteet.

Kartan vaihtaminen: klikkaa mustalla rastilla varustettuja vihreitä pisteitä, niin voit zoomata sisään; viivalla varustettua vihreää pistettä, niin voit zoomata ulos tai vihreitä nuolia, niin pääset viereisille kartoille.


METAR-TAF: